sensor_id;sensor_type;location;lat;lon;timestamp;pressure;altitude;pressure_sealevel;temperature;humidity
29239;BME280;16267;48.194;11.546;2023-10-19T00:00:49;94556.94;;;10.31;84.00
29239;BME280;16267;48.194;11.546;2023-10-19T00:03:17;94555.88;;;10.29;83.69
29239;BME280;16267;48.194;11.546;2023-10-19T00:05:44;94552.84;;;10.26;83.69
29239;BME280;16267;48.194;11.546;2023-10-19T00:08:11;94542.09;;;10.26;83.61
29239;BME280;16267;48.194;11.546;2023-10-19T00:10:48;94538.03;;;10.22;83.55
29239;BME280;16267;48.194;11.546;2023-10-19T00:13:19;94524.34;;;10.20;84.58
29239;BME280;16267;48.194;11.546;2023-10-19T00:15:45;94517.13;;;10.17;84.63
29239;BME280;16267;48.194;11.546;2023-10-19T00:18:15;94520.25;;;10.15;84.71
29239;BME280;16267;48.194;11.546;2023-10-19T00:20:47;94530.66;;;10.13;85.05
29239;BME280;16267;48.194;11.546;2023-10-19T00:23:25;94533.00;;;10.11;85.01
29239;BME280;16267;48.194;11.546;2023-10-19T00:25:56;94531.53;;;10.10;84.93
29239;BME280;16267;48.194;11.546;2023-10-19T00:28:27;94529.59;;;10.11;84.69
29239;BME280;16267;48.194;11.546;2023-10-19T00:30:54;94526.91;;;10.11;84.66
29239;BME280;16267;48.194;11.546;2023-10-19T00:33:25;94525.41;;;10.10;84.67
29239;BME280;16267;48.194;11.546;2023-10-19T00:35:54;94526.16;;;10.10;84.59
29239;BME280;16267;48.194;11.546;2023-10-19T00:38:40;94509.75;;;10.08;84.67
29239;BME280;16267;48.194;11.546;2023-10-19T00:41:16;94502.44;;;10.09;84.50
29239;BME280;16267;48.194;11.546;2023-10-19T00:43:50;94496.78;;;10.07;84.42
29239;BME280;16267;48.194;11.546;2023-10-19T00:46:23;94500.63;;;10.05;84.65
29239;BME280;16267;48.194;11.546;2023-10-19T00:48:57;94488.00;;;10.06;84.56
29239;BME280;16267;48.194;11.546;2023-10-19T00:51:37;94483.81;;;10.05;84.37
29239;BME280;16267;48.194;11.546;2023-10-19T00:56:57;94476.22;;;10.03;84.84
29239;BME280;16267;48.194;11.546;2023-10-19T00:59:29;94481.56;;;10.03;85.34
29239;BME280;16267;48.194;11.546;2023-10-19T01:02:01;94487.03;;;10.00;85.35
29239;BME280;16267;48.194;11.546;2023-10-19T01:04:49;94481.69;;;10.00;86.25
29239;BME280;16267;48.194;11.546;2023-10-19T01:07:29;94482.44;;;10.00;86.24
29239;BME280;16267;48.194;11.546;2023-10-19T01:09:57;94483.94;;;10.01;85.72
29239;BME280;16267;48.194;11.546;2023-10-19T01:12:26;94489.28;;;10.01;85.85
29239;BME280;16267;48.194;11.546;2023-10-19T01:15:10;94491.22;;;10.01;85.89
29239;BME280;16267;48.194;11.546;2023-10-19T01:17:48;94498.81;;;10.02;85.79
29239;BME280;16267;48.194;11.546;2023-10-19T01:20:19;94497.75;;;10.00;86.06
29239;BME280;16267;48.194;11.546;2023-10-19T01:22:54;94493.91;;;10.01;87.33
29239;BME280;16267;48.194;11.546;2023-10-19T01:25:53;94507.31;;;10.01;86.96
29239;BME280;16267;48.194;11.546;2023-10-19T01:28:32;94503.66;;;9.95;87.92
29239;BME280;16267;48.194;11.546;2023-10-19T01:31:12;94493.25;;;9.97;88.44
29239;BME280;16267;48.194;11.546;2023-10-19T01:33:54;94492.94;;;9.95;88.39
29239;BME280;16267;48.194;11.546;2023-10-19T01:36:22;94504.84;;;9.94;88.06
29239;BME280;16267;48.194;11.546;2023-10-19T01:38:48;94491.44;;;9.94;87.83
29239;BME280;16267;48.194;11.546;2023-10-19T01:41:15;94500.69;;;9.93;87.31
29239;BME280;16267;48.194;11.546;2023-10-19T01:43:46;94498.41;;;9.91;87.29
29239;BME280;16267;48.194;11.546;2023-10-19T01:46:15;94510.44;;;9.87;86.25
29239;BME280;16267;48.194;11.546;2023-10-19T01:48:53;94491.25;;;9.88;88.04
29239;BME280;16267;48.194;11.546;2023-10-19T01:51:29;94491.69;;;9.87;87.55
29239;BME280;16267;48.194;11.546;2023-10-19T01:53:56;94497.78;;;9.87;87.45
29239;BME280;16267;48.194;11.546;2023-10-19T01:56:22;94487.06;;;9.87;86.99
29239;BME280;16267;48.194;11.546;2023-10-19T01:58:49;94493.59;;;9.86;86.67
29239;BME280;16267;48.194;11.546;2023-10-19T02:01:18;94486.34;;;9.87;86.79
29239;BME280;16267;48.194;11.546;2023-10-19T02:04:03;94478.72;;;9.85;86.55
29239;BME280;16267;48.194;11.546;2023-10-19T02:06:32;94467.25;;;9.85;87.29
29239;BME280;16267;48.194;11.546;2023-10-19T02:09:14;94456.53;;;9.85;86.81
29239;BME280;16267;48.194;11.546;2023-10-19T02:11:52;94469.94;;;9.85;86.96
29239;BME280;16267;48.194;11.546;2023-10-19T02:14:19;94492.31;;;9.78;88.36
29239;BME280;16267;48.194;11.546;2023-10-19T02:16:50;94493.50;;;9.77;88.08
29239;BME280;16267;48.194;11.546;2023-10-19T02:19:21;94486.22;;;9.77;88.28
29239;BME280;16267;48.194;11.546;2023-10-19T02:22:00;94486.75;;;9.72;87.71
29239;BME280;16267;48.194;11.546;2023-10-19T02:24:29;94481.31;;;9.76;89.13
29239;BME280;16267;48.194;11.546;2023-10-19T02:27:06;94478.28;;;9.74;87.54
29239;BME280;16267;48.194;11.546;2023-10-19T02:29:31;94466.38;;;9.75;88.50
29239;BME280;16267;48.194;11.546;2023-10-19T02:31:57;94469.06;;;9.75;88.27
29239;BME280;16267;48.194;11.546;2023-10-19T02:34:29;94454.50;;;9.76;88.91
29239;BME280;16267;48.194;11.546;2023-10-19T02:36:54;94451.06;;;9.75;88.38
29239;BME280;16267;48.194;11.546;2023-10-19T02:39:20;94459.66;;;9.70;87.45
29239;BME280;16267;48.194;11.546;2023-10-19T02:41:48;94459.97;;;9.72;88.76
29239;BME280;16267;48.194;11.546;2023-10-19T02:44:18;94472.19;;;9.73;88.91
29239;BME280;16267;48.194;11.546;2023-10-19T02:46:52;94464.56;;;9.72;89.59
29239;BME280;16267;48.194;11.546;2023-10-19T02:49:23;94451.94;;;9.72;89.64
29239;BME280;16267;48.194;11.546;2023-10-19T02:51:53;94450.00;;;9.73;89.72
29239;BME280;16267;48.194;11.546;2023-10-19T02:54:24;94445.81;;;9.72;89.12
29239;BME280;16267;48.194;11.546;2023-10-19T02:56:54;94450.75;;;9.73;88.64
29239;BME280;16267;48.194;11.546;2023-10-19T02:59:25;94441.97;;;9.73;88.06
29239;BME280;16267;48.194;11.546;2023-10-19T03:01:53;94438.09;;;9.74;87.62
29239;BME280;16267;48.194;11.546;2023-10-19T03:04:27;94438.84;;;9.74;87.24
29239;BME280;16267;48.194;11.546;2023-10-19T03:06:54;94436.16;;;9.74;87.40
29239;BME280;16267;48.194;11.546;2023-10-19T03:09:23;94438.09;;;9.74;87.71
29239;BME280;16267;48.194;11.546;2023-10-19T03:11:54;94426.19;;;9.75;87.32
29239;BME280;16267;48.194;11.546;2023-10-19T03:14:30;94415.94;;;9.73;87.13
29239;BME280;16267;48.194;11.546;2023-10-19T03:16:58;94417.88;;;9.73;86.96
29239;BME280;16267;48.194;11.546;2023-10-19T03:19:25;94423.22;;;9.73;87.79
29239;BME280;16267;48.194;11.546;2023-10-19T03:21:51;94420.97;;;9.71;87.82
29239;BME280;16267;48.194;11.546;2023-10-19T03:24:19;94416.34;;;9.72;88.17
29239;BME280;16267;48.194;11.546;2023-10-19T03:27:11;94408.75;;;9.70;87.77
29239;BME280;16267;48.194;11.546;2023-10-19T03:29:51;94414.13;;;9.70;87.29
29239;BME280;16267;48.194;11.546;2023-10-19T03:32:24;94406.09;;;9.70;87.04
29239;BME280;16267;48.194;11.546;2023-10-19T03:34:57;94401.47;;;9.71;86.90
29239;BME280;16267;48.194;11.546;2023-10-19T03:37:27;94389.56;;;9.72;87.04
29239;BME280;16267;48.194;11.546;2023-10-19T03:39:55;94387.63;;;9.72;86.90
29239;BME280;16267;48.194;11.546;2023-10-19T03:42:22;94391.81;;;9.73;87.09
29239;BME280;16267;48.194;11.546;2023-10-19T03:44:51;94394.50;;;9.73;87.49
29239;BME280;16267;48.194;11.546;2023-10-19T03:47:21;94392.56;;;9.74;87.45
29239;BME280;16267;48.194;11.546;2023-10-19T03:49:50;94397.19;;;9.73;87.07
29239;BME280;16267;48.194;11.546;2023-10-19T03:52:17;94398.66;;;9.74;87.15
29239;BME280;16267;48.194;11.546;2023-10-19T03:54:43;94400.59;;;9.74;87.90
29239;BME280;16267;48.194;11.546;2023-10-19T03:57:15;94400.59;;;9.74;89.00
29239;BME280;16267;48.194;11.546;2023-10-19T03:59:46;94393.31;;;9.74;89.85
29239;BME280;16267;48.194;11.546;2023-10-19T04:02:13;94394.50;;;9.73;88.98
29239;BME280;16267;48.194;11.546;2023-10-19T04:04:43;94393.75;;;9.73;88.71
29239;BME280;16267;48.194;11.546;2023-10-19T04:07:13;94395.25;;;9.74;88.73
29239;BME280;16267;48.194;11.546;2023-10-19T04:09:50;94399.41;;;9.75;88.85
29239;BME280;16267;48.194;11.546;2023-10-19T04:12:30;94401.34;;;9.74;89.15
29239;BME280;16267;48.194;11.546;2023-10-19T04:14:57;94393.31;;;9.74;88.90
29239;BME280;16267;48.194;11.546;2023-10-19T04:17:34;94388.69;;;9.75;88.72
29239;BME280;16267;48.194;11.546;2023-10-19T04:20:02;94386.75;;;9.75;88.38
29239;BME280;16267;48.194;11.546;2023-10-19T04:22:40;94387.53;;;9.76;88.50
29239;BME280;16267;48.194;11.546;2023-10-19T04:25:06;94383.66;;;9.77;88.14
29239;BME280;16267;48.194;11.546;2023-10-19T04:27:33;94367.59;;;9.77;87.96
29239;BME280;16267;48.194;11.546;2023-10-19T04:30:02;94368.31;;;9.77;87.97
29239;BME280;16267;48.194;11.546;2023-10-19T04:32:28;94371.75;;;9.78;88.09
29239;BME280;16267;48.194;11.546;2023-10-19T04:34:54;94354.50;;;9.79;88.43
29239;BME280;16267;48.194;11.546;2023-10-19T04:37:19;94356.00;;;9.80;88.13
29239;BME280;16267;48.194;11.546;2023-10-19T04:39:48;94360.19;;;9.81;87.98
29239;BME280;16267;48.194;11.546;2023-10-19T04:42:15;94362.88;;;9.81;89.01
29239;BME280;16267;48.194;11.546;2023-10-19T04:44:41;94362.41;;;9.82;90.07
29239;BME280;16267;48.194;11.546;2023-10-19T04:47:06;94359.75;;;9.82;90.09
29239;BME280;16267;48.194;11.546;2023-10-19T04:49:32;94359.31;;;9.84;91.24
29239;BME280;16267;48.194;11.546;2023-10-19T04:51:59;94353.19;;;9.83;92.43
29239;BME280;16267;48.194;11.546;2023-10-19T04:54:25;94348.59;;;9.84;91.19
29239;BME280;16267;48.194;11.546;2023-10-19T04:56:50;94360.06;;;9.85;90.38
29239;BME280;16267;48.194;11.546;2023-10-19T04:59:18;94369.59;;;9.86;90.88
29239;BME280;16267;48.194;11.546;2023-10-19T05:01:44;94366.91;;;9.86;92.38
29239;BME280;16267;48.194;11.546;2023-10-19T05:04:10;94368.41;;;9.87;92.58
29239;BME280;16267;48.194;11.546;2023-10-19T05:06:38;94363.06;;;9.87;91.85
29239;BME280;16267;48.194;11.546;2023-10-19T05:09:04;94364.53;;;9.88;91.52
29239;BME280;16267;48.194;11.546;2023-10-19T05:11:31;94362.63;;;9.88;92.04
29239;BME280;16267;48.194;11.546;2023-10-19T05:13:57;94358.44;;;9.87;91.47
29239;BME280;16267;48.194;11.546;2023-10-19T05:16:22;94343.44;;;9.90;91.14
29239;BME280;16267;48.194;11.546;2023-10-19T05:18:48;94342.66;;;9.89;91.13
29239;BME280;16267;48.194;11.546;2023-10-19T05:21:14;94341.50;;;9.90;90.70
29239;BME280;16267;48.194;11.546;2023-10-19T05:23:40;94337.31;;;9.89;90.30
29239;BME280;16267;48.194;11.546;2023-10-19T05:26:05;94338.81;;;9.90;91.98
29239;BME280;16267;48.194;11.546;2023-10-19T05:28:32;94346.84;;;9.90;92.60
29239;BME280;16267;48.194;11.546;2023-10-19T05:30:58;94352.22;;;9.90;92.53
29239;BME280;16267;48.194;11.546;2023-10-19T05:33:26;94352.22;;;9.90;91.76
29239;BME280;16267;48.194;11.546;2023-10-19T05:35:52;94346.13;;;9.90;91.24
29239;BME280;16267;48.194;11.546;2023-10-19T05:38:18;94341.50;;;9.90;91.99
29239;BME280;16267;48.194;11.546;2023-10-19T05:40:50;94336.88;;;9.91;92.76
29239;BME280;16267;48.194;11.546;2023-10-19T05:43:17;94337.63;;;9.91;91.99
29239;BME280;16267;48.194;11.546;2023-10-19T05:45:43;94336.88;;;9.91;91.41
29239;BME280;16267;48.194;11.546;2023-10-19T05:48:09;94336.88;;;9.91;91.58
29239;BME280;16267;48.194;11.546;2023-10-19T05:50:37;94338.38;;;9.92;91.17
29239;BME280;16267;48.194;11.546;2023-10-19T05:53:03;94333.00;;;9.92;90.89
29239;BME280;16267;48.194;11.546;2023-10-19T05:55:29;94339.88;;;9.93;90.52
29239;BME280;16267;48.194;11.546;2023-10-19T05:58:02;94332.59;;;9.93;90.78
29239;BME280;16267;48.194;11.546;2023-10-19T06:00:31;94323.34;;;9.94;90.79
29239;BME280;16267;48.194;11.546;2023-10-19T06:02:57;94331.72;;;9.96;90.92
29239;BME280;16267;48.194;11.546;2023-10-19T06:05:25;94335.13;;;9.97;90.58
29239;BME280;16267;48.194;11.546;2023-10-19T06:07:51;94332.44;;;9.97;90.57
29239;BME280;16267;48.194;11.546;2023-10-19T06:10:21;94339.75;;;9.96;90.10
29239;BME280;16267;48.194;11.546;2023-10-19T06:12:51;94337.81;;;9.97;90.24
29239;BME280;16267;48.194;11.546;2023-10-19T06:15:20;94340.50;;;9.97;90.96
29239;BME280;16267;48.194;11.546;2023-10-19T06:17:50;94341.25;;;9.97;91.70
29239;BME280;16267;48.194;11.546;2023-10-19T06:20:16;94345.84;;;9.97;91.51
29239;BME280;16267;48.194;11.546;2023-10-19T06:22:56;94344.69;;;9.98;90.92
29239;BME280;16267;48.194;11.546;2023-10-19T06:25:25;94346.16;;;9.99;90.81
29239;BME280;16267;48.194;11.546;2023-10-19T06:27:52;94344.97;;;10.00;90.52
29239;BME280;16267;48.194;11.546;2023-10-19T06:30:20;94341.56;;;9.99;90.12
29239;BME280;16267;48.194;11.546;2023-10-19T06:32:51;94342.31;;;10.00;90.44
29239;BME280;16267;48.194;11.546;2023-10-19T06:35:20;94336.94;;;10.00;90.37
29239;BME280;16267;48.194;11.546;2023-10-19T06:37:47;94336.94;;;10.00;90.26
29239;BME280;16267;48.194;11.546;2023-10-19T06:40:15;94341.88;;;10.01;90.54
29239;BME280;16267;48.194;11.546;2023-10-19T06:42:46;94338.75;;;10.03;90.36
29239;BME280;16267;48.194;11.546;2023-10-19T06:45:13;94326.13;;;10.03;90.22
29239;BME280;16267;48.194;11.546;2023-10-19T06:47:46;94323.72;;;10.05;89.99
29239;BME280;16267;48.194;11.546;2023-10-19T06:50:14;94320.63;;;10.07;90.29
29239;BME280;16267;48.194;11.546;2023-10-19T06:52:45;94317.50;;;10.09;90.88
29239;BME280;16267;48.194;11.546;2023-10-19T06:55:12;94317.38;;;10.12;92.93
29239;BME280;16267;48.194;11.546;2023-10-19T06:57:56;94308.88;;;10.14;93.77
29239;BME280;16267;48.194;11.546;2023-10-19T07:00:23;94316.81;;;10.17;95.07
29239;BME280;16267;48.194;11.546;2023-10-19T07:02:54;94321.72;;;10.19;95.22
29239;BME280;16267;48.194;11.546;2023-10-19T07:05:20;94322.06;;;10.21;94.41
29239;BME280;16267;48.194;11.546;2023-10-19T07:07:51;94324.28;;;10.22;93.71
29239;BME280;16267;48.194;11.546;2023-10-19T07:10:20;94320.75;;;10.25;93.56
29239;BME280;16267;48.194;11.546;2023-10-19T07:12:48;94330.16;;;10.30;96.08
29239;BME280;16267;48.194;11.546;2023-10-19T07:15:16;94325.72;;;10.36;98.77
29239;BME280;16267;48.194;11.546;2023-10-19T07:17:49;94318.75;;;10.39;100.00
29239;BME280;16267;48.194;11.546;2023-10-19T07:20:16;94316.25;;;10.44;99.29
29239;BME280;16267;48.194;11.546;2023-10-19T07:22:57;94324.19;;;10.48;98.91
29239;BME280;16267;48.194;11.546;2023-10-19T07:25:25;94324.34;;;10.54;100.00
29239;BME280;16267;48.194;11.546;2023-10-19T07:27:52;94327.63;;;10.58;100.00
29239;BME280;16267;48.194;11.546;2023-10-19T07:30:19;94322.03;;;10.65;100.00
29239;BME280;16267;48.194;11.546;2023-10-19T07:32:52;94325.63;;;10.71;100.00
29239;BME280;16267;48.194;11.546;2023-10-19T07:35:25;94328.47;;;10.77;100.00
29239;BME280;16267;48.194;11.546;2023-10-19T07:37:56;94329.38;;;10.83;100.00
29239;BME280;16267;48.194;11.546;2023-10-19T07:40:22;94323.03;;;10.89;100.00
29239;BME280;16267;48.194;11.546;2023-10-19T07:42:51;94310.81;;;10.98;100.00
29239;BME280;16267;48.194;11.546;2023-10-19T07:45:18;94314.41;;;11.04;100.00
29239;BME280;16267;48.194;11.546;2023-10-19T07:47:44;94314.44;;;11.13;100.00
29239;BME280;16267;48.194;11.546;2023-10-19T07:50:11;94315.34;;;11.19;100.00
29239;BME280;16267;48.194;11.546;2023-10-19T07:52:42;94313.88;;;11.27;100.00
29239;BME280;16267;48.194;11.546;2023-10-19T07:55:10;94293.59;;;11.35;100.00
29239;BME280;16267;48.194;11.546;2023-10-19T07:57:36;94296.75;;;11.43;100.00
29239;BME280;16267;48.194;11.546;2023-10-19T08:00:02;94295.25;;;11.51;100.00
29239;BME280;16267;48.194;11.546;2023-10-19T08:02:29;94301.09;;;11.59;100.00
29239;BME280;16267;48.194;11.546;2023-10-19T08:04:56;94300.78;;;11.66;100.00
29239;BME280;16267;48.194;11.546;2023-10-19T08:07:22;94301.97;;;11.74;100.00
29239;BME280;16267;48.194;11.546;2023-10-19T08:09:48;94304.81;;;11.80;100.00
29239;BME280;16267;48.194;11.546;2023-10-19T08:12:13;94299.91;;;11.88;100.00
29239;BME280;16267;48.194;11.546;2023-10-19T08:14:39;94302.31;;;11.95;100.00
29239;BME280;16267;48.194;11.546;2023-10-19T08:17:05;94292.13;;;11.99;100.00
29239;BME280;16267;48.194;11.546;2023-10-19T08:19:34;94293.78;;;12.05;100.00
29239;BME280;16267;48.194;11.546;2023-10-19T08:22:01;94283.91;;;12.12;100.00
29239;BME280;16267;48.194;11.546;2023-10-19T08:24:27;94288.97;;;12.19;100.00
29239;BME280;16267;48.194;11.546;2023-10-19T08:26:56;94281.50;;;12.23;100.00
29239;BME280;16267;48.194;11.546;2023-10-19T08:29:21;94280.00;;;12.31;100.00
29239;BME280;16267;48.194;11.546;2023-10-19T08:31:49;94275.50;;;12.37;100.00
29239;BME280;16267;48.194;11.546;2023-10-19T08:34:15;94280.09;;;12.46;100.00
29239;BME280;16267;48.194;11.546;2023-10-19T08:36:41;94280.53;;;12.54;100.00
29239;BME280;16267;48.194;11.546;2023-10-19T08:39:09;94279.31;;;12.64;100.00
29239;BME280;16267;48.194;11.546;2023-10-19T08:41:38;94274.31;;;12.71;100.00
29239;BME280;16267;48.194;11.546;2023-10-19T08:44:08;94277.00;;;12.81;100.00
29239;BME280;16267;48.194;11.546;2023-10-19T08:46:44;94275.47;;;12.89;100.00
29239;BME280;16267;48.194;11.546;2023-10-19T08:49:11;94268.97;;;12.95;100.00
29239;BME280;16267;48.194;11.546;2023-10-19T08:51:39;94275.53;;;13.04;100.00
29239;BME280;16267;48.194;11.546;2023-10-19T08:54:05;94272.94;;;13.09;100.00
29239;BME280;16267;48.194;11.546;2023-10-19T08:56:32;94274.28;;;13.14;100.00
29239;BME280;16267;48.194;11.546;2023-10-19T08:59:01;94277.84;;;13.20;100.00
29239;BME280;16267;48.194;11.546;2023-10-19T09:01:29;94276.03;;;13.26;100.00
29239;BME280;16267;48.194;11.546;2023-10-19T09:03:59;94270.75;;;13.32;100.00
29239;BME280;16267;48.194;11.546;2023-10-19T09:06:25;94268.16;;;13.37;100.00
29239;BME280;16267;48.194;11.546;2023-10-19T09:08:52;94267.81;;;13.45;100.00
29239;BME280;16267;48.194;11.546;2023-10-19T09:11:18;94271.38;;;13.51;100.00
29239;BME280;16267;48.194;11.546;2023-10-19T09:13:51;94279.84;;;13.58;100.00
29239;BME280;16267;48.194;11.546;2023-10-19T09:16:20;94277.72;;;13.63;100.00
29239;BME280;16267;48.194;11.546;2023-10-19T09:18:50;94279.03;;;13.67;100.00
29239;BME280;16267;48.194;11.546;2023-10-19T09:21:19;94275.72;;;13.72;100.00
29239;BME280;16267;48.194;11.546;2023-10-19T09:23:56;94275.06;;;13.77;100.00
29239;BME280;16267;48.194;11.546;2023-10-19T09:26:23;94271.72;;;13.82;100.00
29239;BME280;16267;48.194;11.546;2023-10-19T09:28:51;94265.69;;;13.88;100.00
29239;BME280;16267;48.194;11.546;2023-10-19T09:31:18;94263.38;;;13.95;100.00
29239;BME280;16267;48.194;11.546;2023-10-19T09:33:47;94258.81;;;14.01;100.00
29239;BME280;16267;48.194;11.546;2023-10-19T09:36:14;94264.50;;;14.03;100.00
29239;BME280;16267;48.194;11.546;2023-10-19T09:38:50;94271.66;;;14.06;100.00
29239;BME280;16267;48.194;11.546;2023-10-19T09:41:23;94274.94;;;14.11;100.00
29239;BME280;16267;48.194;11.546;2023-10-19T09:44:01;94264.69;;;14.15;100.00
29239;BME280;16267;48.194;11.546;2023-10-19T09:46:32;94261.81;;;14.18;100.00
29239;BME280;16267;48.194;11.546;2023-10-19T09:49:01;94264.34;;;14.22;100.00
29239;BME280;16267;48.194;11.546;2023-10-19T09:51:27;94258.75;;;14.25;100.00
29239;BME280;16267;48.194;11.546;2023-10-19T09:54:11;94247.31;;;14.31;100.00
29239;BME280;16267;48.194;11.546;2023-10-19T09:56:43;94255.47;;;14.36;100.00
29239;BME280;16267;48.194;11.546;2023-10-19T09:59:26;94254.84;;;14.41;100.00
29239;BME280;16267;48.194;11.546;2023-10-19T10:04:36;94240.31;;;14.54;100.00
29239;BME280;16267;48.194;11.546;2023-10-19T10:07:05;94241.13;;;14.60;100.00
29239;BME280;16267;48.194;11.546;2023-10-19T10:09:37;94242.72;;;14.66;100.00
29239;BME280;16267;48.194;11.546;2023-10-19T10:12:23;94228.81;;;14.73;100.00
29239;BME280;16267;48.194;11.546;2023-10-19T10:15:04;94223.50;;;14.79;100.00
29239;BME280;16267;48.194;11.546;2023-10-19T10:17:39;94206.63;;;14.84;100.00
29239;BME280;16267;48.194;11.546;2023-10-19T10:22:39;94208.75;;;14.95;100.00
29239;BME280;16267;48.194;11.546;2023-10-19T10:25:07;94217.13;;;14.97;100.00
29239;BME280;16267;48.194;11.546;2023-10-19T10:27:41;94222.59;;;15.03;100.00
29239;BME280;16267;48.194;11.546;2023-10-19T10:30:14;94223.88;;;15.07;100.00
29239;BME280;16267;48.194;11.546;2023-10-19T10:32:53;94220.50;;;15.12;100.00
29239;BME280;16267;48.194;11.546;2023-10-19T10:38:04;94216.25;;;15.26;100.00
29239;BME280;16267;48.194;11.546;2023-10-19T10:40:49;94211.66;;;15.32;100.00
29239;BME280;16267;48.194;11.546;2023-10-19T10:43:18;94213.69;;;15.37;100.00
29239;BME280;16267;48.194;11.546;2023-10-19T10:45:44;94211.53;;;15.42;100.00
29239;BME280;16267;48.194;11.546;2023-10-19T10:48:18;94211.31;;;15.45;100.00
29239;BME280;16267;48.194;11.546;2023-10-19T10:50:47;94216.03;;;15.50;100.00
29239;BME280;16267;48.194;11.546;2023-10-19T10:53:14;94200.16;;;15.58;100.00
29239;BME280;16267;48.194;11.546;2023-10-19T10:55:43;94202.44;;;15.65;100.00
29239;BME280;16267;48.194;11.546;2023-10-19T10:58:09;94197.88;;;15.71;100.00
29239;BME280;16267;48.194;11.546;2023-10-19T11:00:45;94195.97;;;15.77;100.00
29239;BME280;16267;48.194;11.546;2023-10-19T11:03:12;94184.44;;;15.82;100.00
29239;BME280;16267;48.194;11.546;2023-10-19T11:05:39;94186.72;;;15.90;100.00
29239;BME280;16267;48.194;11.546;2023-10-19T11:08:12;94176.69;;;15.96;100.00
29239;BME280;16267;48.194;11.546;2023-10-19T11:10:40;94171.81;;;16.00;100.00
29239;BME280;16267;48.194;11.546;2023-10-19T11:13:09;94168.41;;;16.05;100.00
29239;BME280;16267;48.194;11.546;2023-10-19T11:15:37;94164.25;;;16.10;100.00
29239;BME280;16267;48.194;11.546;2023-10-19T11:18:07;94167.97;;;16.12;99.04
29239;BME280;16267;48.194;11.546;2023-10-19T11:20:33;94171.22;;;16.16;99.52
29239;BME280;16267;48.194;11.546;2023-10-19T11:22:59;94170.75;;;16.23;99.66
29239;BME280;16267;48.194;11.546;2023-10-19T11:25:30;94173.03;;;16.31;99.90
29239;BME280;16267;48.194;11.546;2023-10-19T11:27:58;94172.59;;;16.38;99.90
29239;BME280;16267;48.194;11.546;2023-10-19T11:30:30;94171.16;;;16.42;99.38
29239;BME280;16267;48.194;11.546;2023-10-19T11:32:59;94159.88;;;16.49;99.67
29239;BME280;16267;48.194;11.546;2023-10-19T11:35:29;94157.41;;;16.51;98.41
29239;BME280;16267;48.194;11.546;2023-10-19T11:38:00;94148.59;;;16.57;97.99
29239;BME280;16267;48.194;11.546;2023-10-19T11:40:27;94135.56;;;16.61;97.31
29239;BME280;16267;48.194;11.546;2023-10-19T11:42:54;94124.25;;;16.62;96.13
29239;BME280;16267;48.194;11.546;2023-10-19T11:45:26;94117.84;;;16.65;95.90
29239;BME280;16267;48.194;11.546;2023-10-19T11:47:52;94113.44;;;16.68;95.63
29239;BME280;16267;48.194;11.546;2023-10-19T11:50:18;94113.22;;;16.71;95.89
29239;BME280;16267;48.194;11.546;2023-10-19T11:52:46;94096.00;;;16.75;96.02
29239;BME280;16267;48.194;11.546;2023-10-19T11:55:13;94098.50;;;16.78;95.47
29239;BME280;16267;48.194;11.546;2023-10-19T11:57:44;94093.34;;;16.80;95.74
29239;BME280;16267;48.194;11.546;2023-10-19T12:00:11;94093.09;;;16.84;96.30
29239;BME280;16267;48.194;11.546;2023-10-19T12:02:47;94087.44;;;16.87;97.15
29239;BME280;16267;48.194;11.546;2023-10-19T12:05:13;94089.69;;;16.89;96.79
29239;BME280;16267;48.194;11.546;2023-10-19T12:07:40;94089.94;;;16.91;96.25
29239;BME280;16267;48.194;11.546;2023-10-19T12:10:08;94090.16;;;16.93;95.36
29239;BME280;16267;48.194;11.546;2023-10-19T12:12:36;94091.94;;;16.96;94.62
29239;BME280;16267;48.194;11.546;2023-10-19T12:15:05;94090.44;;;17.01;93.74
29239;BME280;16267;48.194;11.546;2023-10-19T12:17:32;94090.47;;;17.06;92.69
29239;BME280;16267;48.194;11.546;2023-10-19T12:20:01;94089.00;;;17.11;91.77
29239;BME280;16267;48.194;11.546;2023-10-19T12:22:27;94085.81;;;17.12;91.33
29239;BME280;16267;48.194;11.546;2023-10-19T12:24:58;94087.56;;;17.15;90.37
29239;BME280;16267;48.194;11.546;2023-10-19T12:27:24;94086.31;;;17.16;88.60
29239;BME280;16267;48.194;11.546;2023-10-19T12:29:51;94068.34;;;17.19;88.83
29239;BME280;16267;48.194;11.546;2023-10-19T12:32:21;94076.22;;;17.23;88.58
29239;BME280;16267;48.194;11.546;2023-10-19T12:34:47;94071.78;;;17.25;88.10
29239;BME280;16267;48.194;11.546;2023-10-19T12:37:19;94068.84;;;17.29;88.20
29239;BME280;16267;48.194;11.546;2023-10-19T12:39:46;94058.25;;;17.31;86.81
29239;BME280;16267;48.194;11.546;2023-10-19T12:42:15;94042.50;;;17.35;85.90
29239;BME280;16267;48.194;11.546;2023-10-19T12:44:42;94040.53;;;17.41;85.52
29239;BME280;16267;48.194;11.546;2023-10-19T12:47:10;94047.44;;;17.48;86.67
29239;BME280;16267;48.194;11.546;2023-10-19T12:49:40;94050.88;;;17.54;88.32
29239;BME280;16267;48.194;11.546;2023-10-19T12:52:09;94043.97;;;17.58;86.59
29239;BME280;16267;48.194;11.546;2023-10-19T12:54:36;94037.81;;;17.64;85.42
29239;BME280;16267;48.194;11.546;2023-10-19T12:57:03;94045.22;;;17.69;84.26
29239;BME280;16267;48.194;11.546;2023-10-19T12:59:35;94034.59;;;17.71;83.37
29239;BME280;16267;48.194;11.546;2023-10-19T13:02:05;94042.75;;;17.71;82.52
29239;BME280;16267;48.194;11.546;2023-10-19T13:04:34;94036.84;;;17.72;82.16
29239;BME280;16267;48.194;11.546;2023-10-19T13:07:00;94035.09;;;17.75;81.40
29239;BME280;16267;48.194;11.546;2023-10-19T13:09:28;94041.53;;;17.77;81.17
29239;BME280;16267;48.194;11.546;2023-10-19T13:12:00;94039.53;;;17.78;80.98
29239;BME280;16267;48.194;11.546;2023-10-19T13:14:28;94035.88;;;17.81;80.34